Locust Grove, Arkansas
Current Conditions -  °F | °C
As of 11:15 AM on Monday 22 Dec 2014 (Local Time) from KBVX Reporting Station
Overcast Overcast  
Wind Chill: 50°   Ceiling: 500
Heat Index: 50°   Visibility: 5mi
Dew Point: 48°   Wind: 9mph
Humidity: 94%   Direction: 160°SSE
Pressure: 29.68"   Gusts: NA
Location:  35.72°N, 91.74°W
Report Text: KBVX 221715Z AUTO 16008KT 5SM OVC005 10/09 A2968 RMK AO1
Loading
Personal Weather Stations






























Interactive Weather Map New forecast layout! Learn more

10-Day Weather Forecast

Advertisements
Track Severe Weather on mobile